DAL2746 KDTW-KDFW
Flight info
| Callsign | DAL2746 |
|---|---|
| Flight time | N/A |
| Altitude | 38000 |
| Route | SNDRS3 BGHRT DCT STL DCT RZC DCT FSM DCT RRNET SEEVR4 |
| Aircraft | A319/M-SDE3FGHIRWY/LB1 |
Departure
| Time | 2026-05-03 22:59 |
|---|---|
| Airport | Detroit Metropolitan Wayne County Airport (KDTW) |
Arrival
| Time | N/A |
|---|---|
| Airport | Dallas Fort Worth International Airport (KDFW) |
| Time | Latitude | Longitude | Altitude | Speed | Heading |
|---|---|---|---|---|---|
| 2026-05-03 22:24 | 42.21121 | -83.35525 | 648 ft | 0 kts | 298° |
| 2026-05-03 22:50 | 42.21112 | -83.35502 | 647 ft | 4 kts | 298° |
| 2026-05-03 22:50 | 42.21102 | -83.35477 | 650 ft | 4 kts | 321° |
| 2026-05-03 22:51 | 42.21083 | -83.35475 | 649 ft | 3 kts | 28° |
| 2026-05-03 22:51 | 42.21069 | -83.35485 | 647 ft | 2 kts | 28° |
| 2026-05-03 22:51 | 42.21067 | -83.35487 | 647 ft | 0 kts | 28° |
| 2026-05-03 22:53 | 42.21070 | -83.35484 | 649 ft | 3 kts | 28° |
| 2026-05-03 22:53 | 42.21148 | -83.35428 | 647 ft | 22 kts | 28° |
| 2026-05-03 22:53 | 42.21317 | -83.35305 | 649 ft | 29 kts | 27° |
| 2026-05-03 22:53 | 42.21488 | -83.35221 | 647 ft | 22 kts | 4° |
| 2026-05-03 22:54 | 42.21563 | -83.35102 | 647 ft | 19 kts | 67° |
| 2026-05-03 22:54 | 42.21658 | -83.34955 | 648 ft | 23 kts | 44° |
| 2026-05-03 22:54 | 42.21786 | -83.34791 | 649 ft | 26 kts | 44° |
| 2026-05-03 22:54 | 42.21835 | -83.34600 | 648 ft | 26 kts | 88° |
| 2026-05-03 22:55 | 42.21975 | -83.34413 | 647 ft | 34 kts | 29° |
| 2026-05-03 22:55 | 42.22182 | -83.34258 | 647 ft | 34 kts | 27° |
| 2026-05-03 22:55 | 42.22386 | -83.34112 | 647 ft | 33 kts | 28° |
| 2026-05-03 22:55 | 42.22569 | -83.33986 | 649 ft | 27 kts | 35° |
| 2026-05-03 22:56 | 42.22740 | -83.33849 | 649 ft | 29 kts | 26° |
| 2026-05-03 22:56 | 42.22839 | -83.33774 | 648 ft | 19 kts | 50° |
| 2026-05-03 22:56 | 42.22797 | -83.33632 | 645 ft | 14 kts | 183° |
| 2026-05-03 22:56 | 42.22767 | -83.33656 | 647 ft | 0 kts | 209° |
| 2026-05-03 22:57 | 42.22640 | -83.33751 | 647 ft | 56 kts | 209° |
| 2026-05-03 22:57 | 42.22110 | -83.34145 | 646 ft | 117 kts | 208° |
| 2026-05-03 22:57 | 42.21243 | -83.34761 | 959 ft | 138 kts | 207° |
| 2026-05-03 22:57 | 42.20941 | -83.34957 | 1235 ft | 135 kts | 210° |
| 2026-05-03 22:59 | 42.20805 | -83.35048 | 1369 ft | 130 kts | 209° |
| 2026-05-03 22:59 | 42.20005 | -83.35637 | 2049 ft | 130 kts | 213° |
| 2026-05-03 22:59 | 42.19173 | -83.36252 | 2547 ft | 142 kts | 212° |
| 2026-05-03 23:00 | 42.18512 | -83.36564 | 2788 ft | 158 kts | 201° |
| 2026-05-03 23:00 | 42.17382 | -83.36998 | 3095 ft | 180 kts | 201° |
| 2026-05-03 23:00 | 42.16074 | -83.37509 | 3439 ft | 205 kts | 200° |
| 2026-05-03 23:00 | 42.14630 | -83.38065 | 3934 ft | 227 kts | 200° |
| 2026-05-03 23:01 | 42.13056 | -83.38667 | 4623 ft | 240 kts | 200° |
| 2026-05-03 23:01 | 42.11432 | -83.39280 | 5513 ft | 245 kts | 200° |
| 2026-05-03 23:01 | 42.10526 | -83.39621 | 6049 ft | 248 kts | 200° |
| 2026-05-03 23:01 | 42.08844 | -83.40255 | 6752 ft | 255 kts | 200° |
| 2026-05-03 23:02 | 42.07211 | -83.41167 | 7171 ft | 255 kts | 217° |
| 2026-05-03 23:02 | 42.05745 | -83.42507 | 8141 ft | 256 kts | 217° |
| 2026-05-03 23:02 | 42.04233 | -83.43868 | 9058 ft | 260 kts | 217° |
| 2026-05-03 23:02 | 42.02672 | -83.45273 | 9933 ft | 265 kts | 218° |
| 2026-05-03 23:03 | 42.01101 | -83.46689 | 10436 ft | 282 kts | 218° |
| 2026-05-03 23:03 | 41.99411 | -83.48217 | 10776 ft | 302 kts | 218° |
| 2026-05-03 23:03 | 41.97633 | -83.49826 | 11430 ft | 311 kts | 218° |
| 2026-05-03 23:03 | 41.95824 | -83.51463 | 12157 ft | 317 kts | 218° |
| 2026-05-03 23:04 | 41.93978 | -83.53134 | 12899 ft | 323 kts | 218° |
| 2026-05-03 23:04 | 41.92103 | -83.54832 | 13640 ft | 328 kts | 218° |
| 2026-05-03 23:04 | 41.90199 | -83.56555 | 14285 ft | 334 kts | 218° |
| 2026-05-03 23:04 | 41.88264 | -83.58305 | 14967 ft | 338 kts | 218° |
| 2026-05-03 23:05 | 41.86302 | -83.60077 | 15611 ft | 342 kts | 218° |
| 2026-05-03 23:05 | 41.84316 | -83.61867 | 16263 ft | 346 kts | 218° |
| 2026-05-03 23:05 | 41.82283 | -83.63698 | 16918 ft | 350 kts | 218° |
| 2026-05-03 23:05 | 41.80243 | -83.65533 | 17549 ft | 354 kts | 219° |
| 2026-05-03 23:06 | 41.78188 | -83.67386 | 18192 ft | 358 kts | 219° |
| 2026-05-03 23:06 | 41.76139 | -83.69235 | 18750 ft | 362 kts | 219° |
| 2026-05-03 23:06 | 41.74015 | -83.71152 | 19342 ft | 365 kts | 219° |
| 2026-05-03 23:06 | 41.71896 | -83.73061 | 19939 ft | 368 kts | 219° |
| 2026-05-03 23:07 | 41.69734 | -83.75003 | 20551 ft | 371 kts | 219° |
| 2026-05-03 23:07 | 41.67583 | -83.76931 | 21162 ft | 374 kts | 219° |
| 2026-05-03 23:07 | 41.65413 | -83.78877 | 21751 ft | 377 kts | 219° |
| 2026-05-03 23:07 | 41.63229 | -83.80835 | 22331 ft | 379 kts | 219° |
| 2026-05-03 23:08 | 41.61022 | -83.82814 | 22914 ft | 382 kts | 219° |
| 2026-05-03 23:08 | 41.58806 | -83.84801 | 23507 ft | 384 kts | 219° |
| 2026-05-03 23:08 | 41.56581 | -83.86792 | 24021 ft | 386 kts | 219° |
| 2026-05-03 23:08 | 41.54376 | -83.88763 | 24503 ft | 388 kts | 219° |
| 2026-05-03 23:09 | 41.52100 | -83.90793 | 24985 ft | 390 kts | 219° |
| 2026-05-03 23:09 | 41.49837 | -83.92807 | 25446 ft | 392 kts | 220° |
| 2026-05-03 23:09 | 41.47560 | -83.94836 | 25901 ft | 393 kts | 220° |
| 2026-05-03 23:09 | 41.45277 | -83.96869 | 26356 ft | 396 kts | 220° |
| 2026-05-03 23:10 | 41.42983 | -83.98909 | 26798 ft | 398 kts | 220° |
| 2026-05-03 23:10 | 41.40678 | -84.00958 | 27232 ft | 400 kts | 220° |
| 2026-05-03 23:10 | 41.38363 | -84.03013 | 27696 ft | 400 kts | 220° |
| 2026-05-03 23:10 | 41.36044 | -84.05071 | 28198 ft | 401 kts | 220° |
| 2026-05-03 23:11 | 41.33712 | -84.07138 | 28657 ft | 403 kts | 220° |
| 2026-05-03 23:11 | 41.31373 | -84.09210 | 29095 ft | 405 kts | 221° |
| 2026-05-03 23:11 | 41.28992 | -84.11330 | 29520 ft | 406 kts | 223° |
| 2026-05-03 23:11 | 41.26848 | -84.13724 | 29912 ft | 400 kts | 232° |
| 2026-05-03 23:12 | 41.25057 | -84.16516 | 30264 ft | 395 kts | 240° |
| 2026-05-03 23:12 | 41.23645 | -84.19618 | 30579 ft | 391 kts | 249° |
| 2026-05-03 23:12 | 41.22588 | -84.22934 | 30868 ft | 391 kts | 253° |
| 2026-05-03 23:12 | 41.21585 | -84.26304 | 31145 ft | 393 kts | 253° |
| 2026-05-03 23:13 | 41.20574 | -84.29691 | 31404 ft | 396 kts | 253° |
| 2026-05-03 23:13 | 41.19544 | -84.33132 | 31779 ft | 395 kts | 253° |
| 2026-05-03 23:13 | 41.18523 | -84.36524 | 32226 ft | 394 kts | 253° |
| 2026-05-03 23:13 | 41.17506 | -84.39891 | 32643 ft | 393 kts | 253° |
| 2026-05-03 23:14 | 41.16465 | -84.43348 | 33067 ft | 392 kts | 253° |
| 2026-05-03 23:14 | 41.15455 | -84.46703 | 33466 ft | 392 kts | 253° |
| 2026-05-03 23:14 | 41.14429 | -84.50102 | 33868 ft | 392 kts | 253° |
| 2026-05-03 23:14 | 41.13402 | -84.53502 | 34217 ft | 391 kts | 253° |
| 2026-05-03 23:15 | 41.12388 | -84.56851 | 34527 ft | 392 kts | 253° |
| 2026-05-03 23:15 | 41.11371 | -84.60210 | 34814 ft | 392 kts | 253° |
| 2026-05-03 23:15 | 41.10383 | -84.63579 | 35064 ft | 391 kts | 256° |
| 2026-05-03 23:15 | 41.09714 | -84.67047 | 35298 ft | 388 kts | 261° |
| 2026-05-03 23:16 | 41.09133 | -84.70560 | 35536 ft | 389 kts | 261° |
| 2026-05-03 23:16 | 41.08548 | -84.74068 | 35765 ft | 390 kts | 261° |
| 2026-05-03 23:16 | 41.08149 | -84.76444 | 35922 ft | 391 kts | 261° |
| 2026-05-03 23:16 | 41.07552 | -84.79972 | 36154 ft | 392 kts | 261° |
| 2026-05-03 23:17 | 41.06954 | -84.83497 | 36377 ft | 392 kts | 261° |
| 2026-05-03 23:17 | 41.06354 | -84.87026 | 36602 ft | 393 kts | 261° |
| 2026-05-03 23:17 | 41.05751 | -84.90556 | 36802 ft | 393 kts | 260° |
| 2026-05-03 23:17 | 41.05147 | -84.94091 | 37017 ft | 394 kts | 260° |
| 2026-05-03 23:18 | 41.04543 | -84.97635 | 37220 ft | 394 kts | 260° |
| 2026-05-03 23:18 | 41.03939 | -85.01175 | 37419 ft | 395 kts | 260° |
| 2026-05-03 23:18 | 41.03325 | -85.04743 | 37597 ft | 396 kts | 260° |
| 2026-05-03 23:18 | 41.02713 | -85.08294 | 37740 ft | 397 kts | 260° |
| 2026-05-03 23:19 | 41.02100 | -85.11860 | 37914 ft | 397 kts | 260° |
| 2026-05-03 23:19 | 41.00872 | -85.18984 | 37972 ft | 396 kts | 260° |
| 2026-05-03 23:20 | 40.99642 | -85.26096 | 37969 ft | 396 kts | 260° |
| 2026-05-03 23:20 | 40.98410 | -85.33209 | 37971 ft | 396 kts | 260° |
| 2026-05-03 23:21 | 40.97166 | -85.40361 | 37966 ft | 396 kts | 260° |
| 2026-05-03 23:21 | 40.95927 | -85.47429 | 37948 ft | 396 kts | 260° |
| 2026-05-03 23:22 | 40.94046 | -85.58095 | 37956 ft | 396 kts | 260° |
| 2026-05-03 23:22 | 40.92780 | -85.65222 | 37960 ft | 397 kts | 260° |
| 2026-05-03 23:23 | 40.91521 | -85.72325 | 37970 ft | 397 kts | 260° |
| 2026-05-03 23:23 | 40.90263 | -85.79431 | 37962 ft | 396 kts | 260° |
| 2026-05-03 23:24 | 40.88997 | -85.86515 | 37952 ft | 397 kts | 260° |
| 2026-05-03 23:24 | 40.88026 | -85.93667 | 37941 ft | 395 kts | 264° |
| 2026-05-03 23:25 | 40.87262 | -86.00856 | 37938 ft | 395 kts | 264° |
| 2026-05-03 23:25 | 40.86490 | -86.08041 | 37938 ft | 395 kts | 264° |
| 2026-05-03 23:26 | 40.85708 | -86.15235 | 37940 ft | 395 kts | 264° |
| 2026-05-03 23:26 | 40.84926 | -86.22465 | 37915 ft | 395 kts | 265° |
| 2026-05-03 23:27 | 40.84141 | -86.29649 | 37908 ft | 396 kts | 265° |
| 2026-05-03 23:27 | 40.83351 | -86.36882 | 37913 ft | 396 kts | 265° |
| 2026-05-03 23:28 | 40.82552 | -86.44127 | 37926 ft | 396 kts | 264° |
| 2026-05-03 23:28 | 40.81758 | -86.51242 | 37922 ft | 395 kts | 264° |
| 2026-05-03 23:29 | 40.80945 | -86.58472 | 37916 ft | 396 kts | 265° |
| 2026-05-03 23:29 | 40.80131 | -86.65667 | 37919 ft | 396 kts | 265° |
| 2026-05-03 23:30 | 40.79316 | -86.72913 | 37925 ft | 396 kts | 265° |
| 2026-05-03 23:30 | 40.78505 | -86.80051 | 37918 ft | 396 kts | 264° |
| 2026-05-03 23:31 | 40.77678 | -86.87296 | 37920 ft | 396 kts | 265° |
| 2026-05-03 23:31 | 40.76851 | -86.94490 | 37921 ft | 397 kts | 264° |
| 2026-05-03 23:32 | 40.76019 | -87.01682 | 37916 ft | 397 kts | 265° |
| 2026-05-03 23:32 | 40.75183 | -87.08890 | 37921 ft | 397 kts | 264° |
| 2026-05-03 23:33 | 40.74335 | -87.16092 | 37914 ft | 397 kts | 264° |
| 2026-05-03 23:33 | 40.73481 | -87.23298 | 37917 ft | 397 kts | 264° |
| 2026-05-03 23:34 | 40.72628 | -87.30506 | 37904 ft | 397 kts | 264° |
| 2026-05-03 23:34 | 40.71773 | -87.37700 | 37896 ft | 397 kts | 264° |
| 2026-05-03 23:35 | 40.70916 | -87.44889 | 37892 ft | 397 kts | 264° |
| 2026-05-03 23:35 | 40.70053 | -87.52082 | 37895 ft | 398 kts | 264° |
| 2026-05-03 23:36 | 40.69183 | -87.59289 | 37890 ft | 398 kts | 264° |
| 2026-05-03 23:36 | 40.68310 | -87.66488 | 37894 ft | 398 kts | 264° |
| 2026-05-03 23:37 | 40.67424 | -87.73691 | 37879 ft | 398 kts | 264° |
| 2026-05-03 23:37 | 40.66680 | -87.79720 | 37885 ft | 398 kts | 264° |
| 2026-05-03 23:38 | 40.65790 | -87.86922 | 37883 ft | 398 kts | 264° |
| 2026-05-03 23:38 | 40.64104 | -87.93904 | 37884 ft | 409 kts | 246° |
| 2026-05-03 23:39 | 40.60582 | -87.99896 | 37884 ft | 418 kts | 234° |
| 2026-05-03 23:39 | 40.56713 | -88.05614 | 37871 ft | 418 kts | 234° |
| 2026-05-03 23:40 | 40.52821 | -88.11357 | 37863 ft | 418 kts | 235° |
| 2026-05-03 23:40 | 40.48926 | -88.17110 | 37869 ft | 418 kts | 235° |
| 2026-05-03 23:41 | 40.45002 | -88.22893 | 37851 ft | 419 kts | 234° |
| 2026-05-03 23:41 | 40.41094 | -88.28643 | 37886 ft | 419 kts | 234° |
| 2026-05-03 23:42 | 40.37185 | -88.34382 | 37882 ft | 419 kts | 234° |
| 2026-05-03 23:42 | 40.33262 | -88.40119 | 37889 ft | 419 kts | 234° |
| 2026-05-03 23:43 | 40.29347 | -88.45846 | 37889 ft | 419 kts | 234° |